createdAt,value
2018-09-30T00:01:00.720Z,3.83
2018-09-30T00:03:30.123Z,3.73
2018-09-30T00:05:59.706Z,4.20
2018-09-30T00:08:29.343Z,4.20
2018-09-30T00:10:58.381Z,4.37
2018-09-30T00:13:27.412Z,6.00
2018-09-30T00:15:56.702Z,5.13
2018-09-30T00:18:25.749Z,3.97
2018-09-30T00:20:55.437Z,4.40
2018-09-30T00:23:24.530Z,7.50
2018-09-30T00:25:58.544Z,5.23
2018-09-30T00:28:27.922Z,4.30
2018-09-30T00:30:57.338Z,5.27
2018-09-30T00:33:26.938Z,4.37
2018-09-30T00:35:56.517Z,8.60
2018-09-30T00:38:25.934Z,5.77
2018-09-30T00:40:55.051Z,5.17
2018-09-30T00:43:24.327Z,4.93
2018-09-30T00:45:53.984Z,5.33
2018-09-30T00:48:23.054Z,4.83
2018-09-30T00:50:52.065Z,5.07
2018-09-30T00:53:21.452Z,7.07
2018-09-30T00:55:50.661Z,6.37
2018-09-30T00:58:19.684Z,5.73
2018-09-30T01:00:48.767Z,6.07
2018-09-30T01:03:18.208Z,7.43
2018-09-30T01:05:47.871Z,7.70
2018-09-30T01:08:17.113Z,5.80
2018-09-30T01:10:46.391Z,6.47
2018-09-30T01:13:15.432Z,6.00
2018-09-30T01:15:44.639Z,8.00
2018-09-30T01:18:13.732Z,5.80
2018-09-30T01:20:42.838Z,6.10
2018-09-30T01:23:11.884Z,6.07
2018-09-30T01:25:40.988Z,6.87
2018-09-30T01:28:10.147Z,6.77
2018-09-30T01:30:39.211Z,6.50
2018-09-30T01:33:08.318Z,8.03
2018-09-30T01:35:37.540Z,5.43
2018-09-30T01:38:07.048Z,7.27
2018-09-30T01:40:36.414Z,5.47
2018-09-30T01:43:05.492Z,5.40
2018-09-30T01:45:34.797Z,5.20
2018-09-30T01:48:04.448Z,3.90
2018-09-30T01:50:33.764Z,4.43
2018-09-30T01:53:03.288Z,4.00
2018-09-30T01:55:32.755Z,4.00
2018-09-30T01:58:02.338Z,3.30
2018-09-30T02:00:32.273Z,3.80
2018-09-30T02:03:01.435Z,2.60
2018-09-30T02:05:30.655Z,2.90
2018-09-30T02:07:59.858Z,6.77
2018-09-30T02:10:29.638Z,3.40
2018-09-30T02:12:58.948Z,4.73
2018-09-30T02:15:28.061Z,3.60
2018-09-30T02:17:57.403Z,4.23
2018-09-30T02:20:26.566Z,4.00
2018-09-30T02:22:55.742Z,4.07
2018-09-30T02:25:24.806Z,2.80
2018-09-30T02:27:53.932Z,4.90
2018-09-30T02:30:23.251Z,3.80
2018-09-30T02:32:52.328Z,5.07
2018-09-30T02:35:21.390Z,3.00
2018-09-30T02:37:50.474Z,4.13
2018-09-30T02:40:19.568Z,3.50
2018-09-30T02:42:49.127Z,4.73
2018-09-30T02:45:18.548Z,6.73
2018-09-30T02:47:47.654Z,5.50
2018-09-30T02:50:17.116Z,3.73
2018-09-30T02:52:46.309Z,3.73
2018-09-30T02:55:16.214Z,3.77
2018-09-30T02:57:45.351Z,3.93
2018-09-30T03:00:14.472Z,5.17
2018-09-30T03:02:43.589Z,2.97
2018-09-30T03:05:12.600Z,3.13
2018-09-30T03:07:46.722Z,5.80
2018-09-30T03:10:16.031Z,6.03
2018-09-30T03:12:45.108Z,3.67
2018-09-30T03:15:14.144Z,4.17
2018-09-30T03:17:43.378Z,4.57
2018-09-30T03:20:12.389Z,5.50
2018-09-30T03:22:41.591Z,6.37
2018-09-30T03:25:11.048Z,4.03
2018-09-30T03:27:40.178Z,6.40
2018-09-30T03:30:09.332Z,10.83
2018-09-30T03:32:38.736Z,6.63
2018-09-30T03:35:08.491Z,8.63
2018-09-30T03:37:37.593Z,6.27
2018-09-30T03:40:06.736Z,8.67
2018-09-30T03:42:35.945Z,6.47
2018-09-30T03:45:05.846Z,7.87
2018-09-30T03:47:35.140Z,4.97
2018-09-30T03:50:04.590Z,5.60
2018-09-30T03:52:33.746Z,6.27
2018-09-30T03:55:02.784Z,6.20
2018-09-30T03:57:32.177Z,6.10
2018-09-30T04:00:01.871Z,6.97
2018-09-30T04:02:31.716Z,7.20
2018-09-30T04:05:01.007Z,6.10
2018-09-30T04:07:30.240Z,5.50
2018-09-30T04:09:59.763Z,5.53
2018-09-30T04:12:29.093Z,7.10
2018-09-30T04:14:58.487Z,6.77
2018-09-30T04:17:28.038Z,6.50
2018-09-30T04:19:57.104Z,8.50
2018-09-30T04:22:26.151Z,6.37
2018-09-30T04:24:55.227Z,6.73
2018-09-30T04:27:24.465Z,9.60
2018-09-30T04:29:53.951Z,9.17
2018-09-30T04:32:23.017Z,11.77
2018-09-30T04:34:52.035Z,11.00
2018-09-30T04:37:21.189Z,10.17
2018-09-30T04:39:50.227Z,11.23
2018-09-30T04:42:19.530Z,15.20
2018-09-30T04:44:48.856Z,9.23
2018-09-30T04:47:18.092Z,11.03
2018-09-30T04:49:47.321Z,14.60
2018-09-30T04:52:16.440Z,8.53
2018-09-30T04:54:45.662Z,9.57
2018-09-30T04:57:14.718Z,9.13
2018-09-30T04:59:43.914Z,9.80
2018-09-30T05:02:13.082Z,15.40
2018-09-30T05:04:42.200Z,12.47
2018-09-30T05:07:11.340Z,13.13
2018-09-30T05:09:40.488Z,11.73
2018-09-30T05:12:09.564Z,13.27
2018-09-30T05:14:38.702Z,12.40
2018-09-30T05:17:07.977Z,12.43
2018-09-30T05:19:37.258Z,14.07
2018-09-30T05:22:06.511Z,15.60
2018-09-30T05:24:35.638Z,15.17
2018-09-30T05:27:04.727Z,15.03
2018-09-30T05:29:33.814Z,16.57
2018-09-30T05:32:02.946Z,17.20
2018-09-30T05:34:32.112Z,14.23
2018-09-30T05:37:01.770Z,14.97
2018-09-30T05:39:30.752Z,13.40
2018-09-30T05:41:59.948Z,14.20
2018-09-30T05:44:29.268Z,14.50
2018-09-30T05:46:58.352Z,15.03
2018-09-30T05:49:27.424Z,13.27
2018-09-30T05:51:56.436Z,13.47
2018-09-30T05:54:25.735Z,10.73
2018-09-30T05:56:54.920Z,11.53
2018-09-30T05:59:24.416Z,17.30
2018-09-30T06:01:53.448Z,12.27
2018-09-30T06:04:22.671Z,13.70
2018-09-30T06:06:51.816Z,11.13
2018-09-30T06:09:21.039Z,11.53
2018-09-30T06:11:50.178Z,14.23
2018-09-30T06:14:19.413Z,12.10
2018-09-30T06:16:48.496Z,14.03
2018-09-30T06:19:17.993Z,12.03
2018-09-30T06:21:47.238Z,10.97
2018-09-30T06:24:16.456Z,12.90
2018-09-30T06:26:45.475Z,16.90
2018-09-30T06:29:14.641Z,12.00
2018-09-30T06:31:43.839Z,11.03
2018-09-30T06:34:12.897Z,13.10
2018-09-30T06:36:42.032Z,12.83
2018-09-30T06:39:11.307Z,16.30
2018-09-30T06:41:40.509Z,14.03
2018-09-30T06:44:09.610Z,11.23
2018-09-30T06:46:38.732Z,12.80
2018-09-30T06:49:08.144Z,26.57
2018-09-30T06:51:37.333Z,11.90
2018-09-30T06:54:06.480Z,10.30
2018-09-30T06:56:35.814Z,8.97
2018-09-30T06:59:05.004Z,12.10
2018-09-30T07:01:34.212Z,10.60
2018-09-30T07:04:03.387Z,9.87
2018-09-30T07:06:32.426Z,8.70
2018-09-30T07:09:01.945Z,11.70
2018-09-30T07:11:30.935Z,9.33
2018-09-30T07:14:00.077Z,8.93
2018-09-30T07:16:29.103Z,9.57
2018-09-30T07:18:58.226Z,7.80
2018-09-30T07:21:27.528Z,7.37
2018-09-30T07:23:56.617Z,10.63
2018-09-30T07:26:26.386Z,9.73
2018-09-30T07:28:55.588Z,8.50
2018-09-30T07:31:24.612Z,7.37
2018-09-30T07:33:53.785Z,7.93
2018-09-30T07:36:22.925Z,6.37
2018-09-30T07:38:51.993Z,8.53
2018-09-30T07:41:21.149Z,7.97
2018-09-30T07:43:50.274Z,6.63
2018-09-30T07:46:19.387Z,8.67
2018-09-30T07:48:48.580Z,9.40
2018-09-30T07:51:17.878Z,8.27
2018-09-30T07:53:47.044Z,8.73
2018-09-30T07:56:16.080Z,7.10
2018-09-30T07:58:45.281Z,8.83
2018-09-30T08:01:14.469Z,7.63
2018-09-30T08:03:43.460Z,6.00
2018-09-30T08:06:12.513Z,7.43
2018-09-30T08:08:41.650Z,6.97
2018-09-30T08:11:10.856Z,7.10
2018-09-30T08:13:40.008Z,9.80
2018-09-30T08:16:09.455Z,6.00
2018-09-30T08:18:38.588Z,7.03
2018-09-30T08:21:07.966Z,7.20
2018-09-30T08:23:37.095Z,6.83
2018-09-30T08:26:06.492Z,6.73
2018-09-30T08:28:35.665Z,5.57
2018-09-30T08:31:04.777Z,10.23
2018-09-30T08:33:34.002Z,7.13
2018-09-30T08:36:08.305Z,7.93
2018-09-30T08:38:38.404Z,5.67
2018-09-30T08:41:09.974Z,6.97
2018-09-30T08:43:40.272Z,7.20
2018-09-30T08:46:10.040Z,5.67
2018-09-30T08:48:39.175Z,6.77
2018-09-30T08:51:08.587Z,6.63
2018-09-30T08:53:38.450Z,5.83
2018-09-30T08:56:07.564Z,5.57
2018-09-30T08:58:36.660Z,6.87
2018-09-30T09:01:05.885Z,6.87
2018-09-30T09:03:35.541Z,7.13
2018-09-30T09:06:04.655Z,5.10
2018-09-30T09:08:33.709Z,6.83
2018-09-30T09:11:03.020Z,7.80
2018-09-30T09:13:32.410Z,5.83
2018-09-30T09:16:01.467Z,9.73
2018-09-30T09:18:30.568Z,7.37
2018-09-30T09:20:59.726Z,7.90
2018-09-30T09:23:28.933Z,8.87
2018-09-30T09:25:58.184Z,9.33
2018-09-30T09:28:27.240Z,8.10
2018-09-30T09:30:56.437Z,6.30
2018-09-30T09:33:25.523Z,7.57
2018-09-30T09:35:54.645Z,7.23
2018-09-30T09:38:23.814Z,7.53
2018-09-30T09:40:53.342Z,8.10
2018-09-30T09:43:22.412Z,8.00
2018-09-30T09:45:51.466Z,9.17
2018-09-30T09:48:20.557Z,6.40
2018-09-30T09:50:49.669Z,6.77
2018-09-30T09:53:18.840Z,8.90
2018-09-30T09:55:47.986Z,8.33
2018-09-30T09:58:17.083Z,9.13
2018-09-30T10:00:46.977Z,9.57
2018-09-30T10:03:17.166Z,6.57
2018-09-30T10:05:46.268Z,8.73
2018-09-30T10:08:15.337Z,8.90
2018-09-30T10:10:44.394Z,7.83
2018-09-30T10:13:13.895Z,10.67
2018-09-30T10:15:42.929Z,8.07
2018-09-30T10:18:11.970Z,8.37
2018-09-30T10:20:41.096Z,10.23
2018-09-30T10:23:10.537Z,6.90
2018-09-30T10:25:39.916Z,6.57
2018-09-30T10:28:09.053Z,7.60
2018-09-30T10:30:38.152Z,8.40
2018-09-30T10:33:07.476Z,7.93
2018-09-30T10:35:36.989Z,7.73
2018-09-30T10:38:06.173Z,10.47
2018-09-30T10:40:35.263Z,9.83
2018-09-30T10:43:04.419Z,10.13
2018-09-30T10:45:33.510Z,10.07
2018-09-30T10:48:02.649Z,9.20
2018-09-30T10:50:31.777Z,9.80
2018-09-30T10:53:01.052Z,8.00
2018-09-30T10:55:30.280Z,9.07
2018-09-30T10:57:59.324Z,10.53
2018-09-30T11:00:28.501Z,7.83
2018-09-30T11:02:57.615Z,10.03
2018-09-30T11:05:27.085Z,9.67
2018-09-30T11:07:56.673Z,9.20
2018-09-30T11:10:26.123Z,10.23
2018-09-30T11:12:55.484Z,9.53
2018-09-30T11:15:24.535Z,10.03
2018-09-30T11:17:53.918Z,11.27
2018-09-30T11:20:23.029Z,9.33
2018-09-30T11:22:52.765Z,10.70
2018-09-30T11:25:21.977Z,11.37
2018-09-30T11:27:51.989Z,10.57
2018-09-30T11:30:21.020Z,14.43
2018-09-30T11:32:50.129Z,7.80
2018-09-30T11:35:19.228Z,9.63
2018-09-30T11:37:48.438Z,12.40
2018-09-30T11:40:17.576Z,9.20
2018-09-30T11:42:46.669Z,7.03
2018-09-30T11:45:15.818Z,11.77
2018-09-30T11:47:44.862Z,11.40
2018-09-30T11:50:14.637Z,8.07
2018-09-30T11:52:43.866Z,9.87
2018-09-30T11:55:12.930Z,15.40
2018-09-30T11:57:42.480Z,9.80
2018-09-30T12:00:11.555Z,10.97
2018-09-30T12:02:40.936Z,11.70
2018-09-30T12:05:10.082Z,13.00
2018-09-30T12:07:39.120Z,12.03
2018-09-30T12:10:08.518Z,9.27
2018-09-30T12:12:37.911Z,71.60
2018-09-30T12:15:06.963Z,17.00
2018-09-30T12:17:36.113Z,9.23
2018-09-30T12:20:05.545Z,11.00
2018-09-30T12:22:34.682Z,9.33
2018-09-30T12:25:03.759Z,8.33
2018-09-30T12:27:32.974Z,12.17
2018-09-30T12:30:02.087Z,10.20
2018-09-30T12:32:31.240Z,8.07
2018-09-30T12:35:00.749Z,11.20
2018-09-30T12:37:29.837Z,10.03
2018-09-30T12:39:58.862Z,9.10
2018-09-30T12:42:28.210Z,8.37
2018-09-30T12:44:57.636Z,6.87
2018-09-30T12:47:26.914Z,11.27
2018-09-30T12:49:56.192Z,7.67
2018-09-30T12:52:25.216Z,9.17
2018-09-30T12:54:54.247Z,10.00
2018-09-30T12:57:23.760Z,7.90
2018-09-30T12:59:53.095Z,13.67
2018-09-30T13:02:22.141Z,8.80
2018-09-30T13:04:51.370Z,9.37
2018-09-30T13:07:20.411Z,9.90
2018-09-30T13:09:49.451Z,8.87
2018-09-30T13:12:18.676Z,8.67
2018-09-30T13:14:47.724Z,6.33
2018-09-30T13:17:16.908Z,9.87
2018-09-30T13:19:46.014Z,8.77
2018-09-30T13:22:15.105Z,8.97
2018-09-30T13:24:44.233Z,11.13
2018-09-30T13:27:13.534Z,8.27
2018-09-30T13:29:42.565Z,8.13
2018-09-30T13:32:11.735Z,8.10
2018-09-30T13:34:40.798Z,7.70
2018-09-30T13:37:09.813Z,10.70
2018-09-30T13:39:38.912Z,7.70
2018-09-30T13:42:08.416Z,11.67
2018-09-30T13:44:37.994Z,10.50
2018-09-30T13:47:07.085Z,9.40
2018-09-30T13:49:36.228Z,7.77
2018-09-30T13:52:05.324Z,8.30
2018-09-30T13:54:34.419Z,10.23
2018-09-30T13:57:03.564Z,9.43
2018-09-30T13:59:32.664Z,11.83
2018-09-30T14:02:01.720Z,10.47
2018-09-30T14:04:31.407Z,10.23
2018-09-30T14:07:00.627Z,10.40
2018-09-30T14:09:29.715Z,9.40
2018-09-30T14:11:58.762Z,8.93
2018-09-30T14:14:28.397Z,8.80
2018-09-30T14:16:57.509Z,10.10
2018-09-30T14:19:26.606Z,7.53
2018-09-30T14:21:55.883Z,9.63
2018-09-30T14:24:25.101Z,7.60
2018-09-30T14:26:54.184Z,8.77
2018-09-30T14:29:23.494Z,12.97
2018-09-30T14:31:52.501Z,6.87
2018-09-30T14:34:21.720Z,10.80
2018-09-30T14:36:50.900Z,9.07
2018-09-30T14:39:20.238Z,9.90
2018-09-30T14:41:49.341Z,9.10
2018-09-30T14:44:18.410Z,8.60
2018-09-30T14:46:47.736Z,7.97
2018-09-30T14:49:17.324Z,9.20
2018-09-30T14:51:46.457Z,8.07
2018-09-30T14:54:15.956Z,8.17
2018-09-30T14:56:45.200Z,9.53
2018-09-30T14:59:14.235Z,9.47
2018-09-30T15:01:43.384Z,10.10
2018-09-30T15:04:12.478Z,11.00
2018-09-30T15:06:41.650Z,17.27
2018-09-30T15:09:11.724Z,12.63
2018-09-30T15:11:41.149Z,9.03
2018-09-30T15:14:10.310Z,8.10
2018-09-30T15:16:39.380Z,6.67
2018-09-30T15:19:08.407Z,7.03
2018-09-30T15:21:37.453Z,7.27
2018-09-30T15:24:06.683Z,8.17
2018-09-30T15:26:35.725Z,6.37
2018-09-30T15:29:04.872Z,11.47
2018-09-30T15:31:33.984Z,9.90
2018-09-30T15:34:03.393Z,9.43
2018-09-30T15:36:32.588Z,7.13
2018-09-30T15:39:01.791Z,7.93
2018-09-30T15:41:30.894Z,10.43
2018-09-30T15:43:59.911Z,8.07
2018-09-30T15:46:29.054Z,9.20
2018-09-30T15:48:58.195Z,9.10
2018-09-30T15:51:27.298Z,12.20
2018-09-30T15:53:56.407Z,8.97
2018-09-30T15:56:25.588Z,11.73
2018-09-30T15:58:54.752Z,10.43
2018-09-30T16:01:23.776Z,12.23
2018-09-30T16:03:52.988Z,13.10
2018-09-30T16:06:22.099Z,17.33
2018-09-30T16:08:51.195Z,10.03
2018-09-30T16:11:20.340Z,12.80
2018-09-30T16:13:49.354Z,12.07
2018-09-30T16:16:18.504Z,9.70
2018-09-30T16:18:47.889Z,10.00
2018-09-30T16:21:17.000Z,9.87
2018-09-30T16:23:46.404Z,11.80
2018-09-30T16:26:15.549Z,11.73
2018-09-30T16:28:44.628Z,8.00
2018-09-30T16:31:13.988Z,11.23
2018-09-30T16:33:43.087Z,10.10
2018-09-30T16:36:12.305Z,12.90
2018-09-30T16:38:41.583Z,11.83
2018-09-30T16:41:10.785Z,12.33
2018-09-30T16:43:39.827Z,9.67
2018-09-30T16:46:09.014Z,16.33
2018-09-30T16:48:38.047Z,11.80
2018-09-30T16:51:07.454Z,15.23
2018-09-30T16:53:36.970Z,13.57
2018-09-30T16:56:06.093Z,14.23
2018-09-30T16:58:35.103Z,15.80
2018-09-30T17:01:04.117Z,14.20
2018-09-30T17:03:33.293Z,12.27
2018-09-30T17:06:02.396Z,15.27
2018-09-30T17:08:31.488Z,17.27
2018-09-30T17:11:00.648Z,17.70
2018-09-30T17:13:29.735Z,13.47
2018-09-30T17:15:58.843Z,13.27
2018-09-30T17:18:28.029Z,14.23
2018-09-30T17:20:57.183Z,11.90
2018-09-30T17:23:26.902Z,11.47
2018-09-30T17:25:55.981Z,12.77
2018-09-30T17:28:25.036Z,10.77
2018-09-30T17:30:54.224Z,11.43
2018-09-30T17:33:23.834Z,9.63
2018-09-30T17:35:52.982Z,11.33
2018-09-30T17:38:22.040Z,11.73
2018-09-30T17:40:51.481Z,14.47
2018-09-30T17:43:20.629Z,10.57
2018-09-30T17:45:50.025Z,9.47
2018-09-30T17:48:19.183Z,11.00
2018-09-30T17:50:48.366Z,12.97
2018-09-30T17:53:17.513Z,8.67
2018-09-30T17:55:46.672Z,9.07
2018-09-30T17:58:15.724Z,9.10
2018-09-30T18:00:44.852Z,12.00
2018-09-30T18:03:14.161Z,13.47
2018-09-30T18:05:43.203Z,10.33
2018-09-30T18:08:12.693Z,13.07
2018-09-30T18:10:41.909Z,10.13
2018-09-30T18:13:11.079Z,10.13
2018-09-30T18:15:40.287Z,11.53
2018-09-30T18:18:09.901Z,12.60
2018-09-30T18:20:38.992Z,9.97
2018-09-30T18:23:08.128Z,13.00
2018-09-30T18:25:37.265Z,11.37
2018-09-30T18:28:06.263Z,10.37
2018-09-30T18:30:35.332Z,11.57
2018-09-30T18:33:04.330Z,15.43
2018-09-30T18:35:33.568Z,11.63
2018-09-30T18:38:02.810Z,11.83
2018-09-30T18:40:48.928Z,11.73
2018-09-30T18:43:18.565Z,12.73
2018-09-30T18:45:47.620Z,12.90
2018-09-30T18:48:16.696Z,12.20
2018-09-30T18:50:45.760Z,9.13
2018-09-30T18:53:14.908Z,8.10
2018-09-30T18:55:43.953Z,10.57
2018-09-30T18:58:13.322Z,12.57
2018-09-30T19:00:42.432Z,9.93
2018-09-30T19:03:11.599Z,7.47
2018-09-30T19:05:40.687Z,10.33
2018-09-30T19:08:09.725Z,9.13
2018-09-30T19:10:39.168Z,9.43
2018-09-30T19:13:08.265Z,12.50
2018-09-30T19:15:37.388Z,6.60
2018-09-30T19:18:06.448Z,10.50
2018-09-30T19:20:35.612Z,10.13
2018-09-30T19:23:04.777Z,7.87
2018-09-30T19:25:34.176Z,13.07
2018-09-30T19:28:03.287Z,9.37
2018-09-30T19:30:32.411Z,6.37
2018-09-30T19:33:01.406Z,10.77
2018-09-30T19:35:30.719Z,9.80
2018-09-30T19:38:00.088Z,9.37
2018-09-30T19:40:29.142Z,10.20
2018-09-30T19:42:58.312Z,8.63
2018-09-30T19:45:27.550Z,8.20
2018-09-30T19:47:56.700Z,7.50
2018-09-30T19:50:26.183Z,7.90
2018-09-30T19:52:55.336Z,9.53
2018-09-30T19:55:24.525Z,7.23
2018-09-30T19:57:53.797Z,7.30
2018-09-30T20:00:22.832Z,7.00
2018-09-30T20:02:51.934Z,7.20
2018-09-30T20:05:21.044Z,8.13
2018-09-30T20:07:50.150Z,11.13
2018-09-30T20:10:19.214Z,10.87
2018-09-30T20:12:48.315Z,6.73
2018-09-30T20:15:17.295Z,5.83
2018-09-30T20:17:46.699Z,7.10
2018-09-30T20:20:16.301Z,5.97
2018-09-30T20:22:45.736Z,8.03
2018-09-30T20:25:14.956Z,8.97
2018-09-30T20:27:44.126Z,6.63
2018-09-30T20:30:13.340Z,9.77
2018-09-30T20:32:42.391Z,6.70
2018-09-30T20:35:11.716Z,6.93
2018-09-30T20:37:41.397Z,5.50
2018-09-30T20:40:10.558Z,9.77
2018-09-30T20:42:39.924Z,8.80
2018-09-30T20:45:09.617Z,7.10
2018-09-30T20:47:38.921Z,11.13
2018-09-30T20:50:08.520Z,7.43
2018-09-30T20:52:37.614Z,8.63
2018-09-30T20:55:06.672Z,6.63
2018-09-30T20:57:35.877Z,7.10
2018-09-30T21:00:05.674Z,7.13
2018-09-30T21:02:34.801Z,7.97
2018-09-30T21:05:12.499Z,9.33
2018-09-30T21:07:41.868Z,8.87
2018-09-30T21:10:11.723Z,9.60
2018-09-30T21:12:41.091Z,11.97
2018-09-30T21:15:10.104Z,7.97
2018-09-30T21:17:39.488Z,7.77
2018-09-30T21:20:08.604Z,10.80
2018-09-30T21:22:37.624Z,7.63
2018-09-30T21:25:06.961Z,9.17
2018-09-30T21:27:36.098Z,6.30
2018-09-30T21:30:05.405Z,6.80
2018-09-30T21:32:34.620Z,8.63
2018-09-30T21:35:04.505Z,10.70
2018-09-30T21:37:33.878Z,12.87
2018-09-30T21:40:03.036Z,8.70
2018-09-30T21:42:32.219Z,9.07
2018-09-30T21:45:01.480Z,11.10
2018-09-30T21:47:30.580Z,9.27
2018-09-30T21:49:59.754Z,9.63
2018-09-30T21:52:29.056Z,7.67
2018-09-30T21:54:58.437Z,12.33
2018-09-30T21:57:27.682Z,10.97
2018-09-30T21:59:56.766Z,14.07
2018-09-30T22:02:25.803Z,11.17
2018-09-30T22:04:55.557Z,10.20
2018-09-30T22:07:24.888Z,11.27
2018-09-30T22:09:54.304Z,11.80
2018-09-30T22:12:23.819Z,11.27
2018-09-30T22:14:52.855Z,15.07
2018-09-30T22:17:21.980Z,33.50
2018-09-30T22:19:51.117Z,13.33
2018-09-30T22:22:20.261Z,14.83
2018-09-30T22:24:49.309Z,26.73
2018-09-30T22:27:18.618Z,17.67
2018-09-30T22:29:47.940Z,16.13
2018-09-30T22:32:18.268Z,13.63
2018-09-30T22:34:47.441Z,14.07
2018-09-30T22:37:16.634Z,19.17
2018-09-30T22:39:45.899Z,16.17
2018-09-30T22:42:15.056Z,14.10
2018-09-30T22:44:44.372Z,19.53
2018-09-30T22:47:13.440Z,20.57
2018-09-30T22:49:42.620Z,17.60
2018-09-30T22:52:11.857Z,15.63
2018-09-30T22:54:40.997Z,20.17
2018-09-30T22:57:10.069Z,16.63
2018-09-30T22:59:39.326Z,22.43
2018-09-30T23:02:08.904Z,21.37
2018-09-30T23:04:37.980Z,22.57
2018-09-30T23:07:07.043Z,19.97
2018-09-30T23:09:36.177Z,20.53
2018-09-30T23:12:05.317Z,23.10
2018-09-30T23:14:34.468Z,24.67
2018-09-30T23:17:03.516Z,21.93
2018-09-30T23:19:32.640Z,20.63
2018-09-30T23:22:01.835Z,21.40
2018-09-30T23:24:30.906Z,24.07
2018-09-30T23:27:00.005Z,21.07
2018-09-30T23:29:29.112Z,25.10
2018-09-30T23:31:58.304Z,26.00
2018-09-30T23:34:27.482Z,28.77
2018-09-30T23:36:57.756Z,23.70
2018-09-30T23:39:27.240Z,25.43
2018-09-30T23:41:56.377Z,26.13
2018-09-30T23:44:25.585Z,24.23
2018-09-30T23:46:54.641Z,26.27
2018-09-30T23:49:23.809Z,26.50
2018-09-30T23:51:53.000Z,26.43
2018-09-30T23:54:22.455Z,27.73
2018-09-30T23:56:51.672Z,25.53
2018-09-30T23:59:20.762Z,26.27
